Time;durP1;ratioP1;P1;durP2;ratioP2;P2;SDS_P1;SDS_P2;PMS_P1;PMS_P2;Temp;Humidity;BMP_temperature;BMP_pressure;BME280_temperature;BME280_humidity;BME280_pressure;Samples;Min_cycle;Max_cycle;Signal;HPM_P1;HPM_P2
2023/01/22 00:00:05;;;;;;;;;;;-3.00;99.90;;;;;;5000404;28;20405;-62
2023/01/22 00:02:38;;;;;;;30.33;14.25;;;-3.00;99.90;;;;;;4997067;28;19925;-61
2023/01/22 00:05:05;;;;;;;30.30;15.23;;;-2.90;99.90;;;;;;4999431;28;20147;-61
2023/01/22 00:07:32;;;;;;;29.92;16.35;;;-2.90;99.90;;;;;;4996323;28;20077;-60
2023/01/22 00:09:59;;;;;;;27.55;15.00;;;-2.90;99.90;;;;;;4994290;28;20046;-60
2023/01/22 00:12:26;;;;;;;32.72;15.55;;;-2.90;99.90;;;;;;5000276;28;20068;-60
2023/01/22 00:14:53;;;;;;;27.92;15.68;;;-2.90;99.90;;;;;;4998897;28;20051;-61
2023/01/22 00:17:20;;;;;;;30.85;15.32;;;-2.90;99.90;;;;;;4996284;28;20132;-62
2023/01/22 00:19:47;;;;;;;29.67;15.55;;;-2.90;99.90;;;;;;4997999;28;20575;-60
2023/01/22 00:22:13;;;;;;;28.98;16.67;;;-2.90;99.90;;;;;;4998616;28;20037;-60
2023/01/22 00:24:40;;;;;;;33.05;16.80;;;-2.90;99.90;;;;;;4996783;28;20050;-62
2023/01/22 00:27:07;;;;;;;29.30;14.52;;;-2.90;99.90;;;;;;4998300;28;20492;-60
2023/01/22 00:29:34;;;;;;;30.45;15.68;;;-2.90;99.90;;;;;;5004461;28;20536;-61
2023/01/22 00:32:01;;;;;;;33.42;16.08;;;-2.90;99.90;;;;;;4997474;28;20312;-61
2023/01/22 00:34:28;;;;;;;27.63;15.13;;;-2.90;99.90;;;;;;4996294;28;20065;-63
2023/01/22 00:36:56;;;;;;;31.90;15.70;;;-2.90;99.90;;;;;;4997776;28;20061;-64
2023/01/22 00:39:23;;;;;;;31.08;16.27;;;-2.90;99.90;;;;;;5002225;28;20038;-61
2023/01/22 00:41:50;;;;;;;28.63;15.15;;;-2.90;99.90;;;;;;4996252;28;20404;-64
2023/01/22 00:44:17;;;;;;;29.05;16.00;;;-2.90;99.90;;;;;;4998682;28;20042;-63
2023/01/22 00:46:44;;;;;;;33.35;17.85;;;-2.90;99.90;;;;;;4999235;28;20045;-64
2023/01/22 00:49:11;;;;;;;29.80;16.35;;;-2.90;99.90;;;;;;5001513;28;20045;-60
2023/01/22 00:51:38;;;;;;;29.05;15.50;;;-2.90;99.90;;;;;;5002834;28;20159;-64
2023/01/22 00:54:05;;;;;;;31.95;15.48;;;-2.90;99.90;;;;;;4993777;28;20041;-61
2023/01/22 00:56:32;;;;;;;34.05;16.75;;;-2.90;99.90;;;;;;4998675;28;20813;-62
2023/01/22 00:58:59;;;;;;;34.53;17.55;;;-2.90;99.90;;;;;;4994938;28;20864;-61
2023/01/22 01:01:26;;;;;;;34.83;17.23;;;-2.90;99.90;;;;;;4998205;28;20045;-61
2023/01/22 01:03:52;;;;;;;32.33;17.10;;;-2.90;99.90;;;;;;4997269;28;20057;-63
2023/01/22 01:06:20;;;;;;;35.25;17.20;;;-2.90;99.90;;;;;;4997502;28;20054;-61
2023/01/22 01:08:48;;;;;;;31.08;17.02;;;-2.90;99.90;;;;;;4995453;28;20274;-62
2023/01/22 01:11:21;;;;;;;31.17;16.55;;;-2.90;99.90;;;;;;4996328;28;20459;-64
2023/01/22 01:13:49;;;;;;;33.65;17.20;;;-2.80;99.90;;;;;;4999979;28;20540;-62
2023/01/22 01:16:19;;;;;;;30.83;17.25;;;-2.90;99.90;;;;;;4997567;28;20038;-62
2023/01/22 01:18:47;;;;;;;31.90;17.60;;;-2.90;99.90;;;;;;4994382;28;20650;-62
2023/01/22 01:21:14;;;;;;;33.45;16.60;;;-2.90;99.90;;;;;;5005222;28;20534;-64
2023/01/22 01:23:41;;;;;;;38.63;17.90;;;-2.90;99.90;;;;;;4995470;28;20042;-62
2023/01/22 01:26:11;;;;;;;40.65;17.50;;;-2.90;99.90;;;;;;4997728;28;20045;-62
2023/01/22 01:28:40;;;;;;;34.20;16.98;;;-2.90;99.90;;;;;;4987145;28;20049;-62
2023/01/22 01:31:09;;;;;;;34.88;17.58;;;-2.90;99.90;;;;;;4996828;28;20128;-61
2023/01/22 01:33:36;;;;;;;29.33;15.13;;;-2.90;99.90;;;;;;4996142;28;20077;-61
2023/01/22 01:36:07;;;;;;;29.17;16.85;;;-2.90;99.90;;;;;;4997175;28;20336;-62
2023/01/22 01:38:33;;;;;;;28.42;15.82;;;-2.90;99.90;;;;;;5001936;28;20077;-61
2023/01/22 01:41:00;;;;;;;34.83;17.55;;;-2.90;99.90;;;;;;4998294;28;20049;-62
2023/01/22 01:43:27;;;;;;;37.00;18.30;;;-2.90;99.90;;;;;;4995351;28;20353;-62
2023/01/22 01:45:58;;;;;;;;;;;-2.90;99.90;;;;;;4994420;28;20042;-63
2023/01/22 01:48:32;;;;;;;35.58;17.33;;;-2.90;99.90;;;;;;4995337;28;20438;-63
2023/01/22 01:51:10;;;;;;;33.58;17.00;;;-2.90;99.90;;;;;;4999338;28;20119;-62
2023/01/22 01:53:39;;;;;;;37.28;18.55;;;-2.90;99.90;;;;;;5009248;28;20122;-61
2023/01/22 01:56:11;;;;;;;28.13;16.27;;;-2.90;99.90;;;;;;4995834;28;20412;-62
2023/01/22 01:58:41;;;;;;;34.95;17.50;;;-2.90;99.90;;;;;;4998705;28;20118;-62
2023/01/22 02:01:12;;;;;;;32.35;17.15;;;-2.90;99.90;;;;;;4993608;28;20052;-64
2023/01/22 02:03:40;;;;;;;33.33;16.98;;;-2.90;99.90;;;;;;4996066;28;20104;-62
2023/01/22 02:06:11;;;;;;;37.17;17.73;;;-2.90;99.90;;;;;;4997174;28;20052;-61
2023/01/22 02:08:39;;;;;;;33.47;17.73;;;-2.90;99.90;;;;;;5002753;28;20530;-63
2023/01/22 02:11:07;;;;;;;32.95;18.52;;;-2.90;99.90;;;;;;4994964;28;20190;-63
2023/01/22 02:13:36;;;;;;;34.53;19.25;;;-2.90;99.90;;;;;;5000895;28;20045;-61
2023/01/22 02:16:04;;;;;;;32.95;16.70;;;-2.90;99.90;;;;;;5003744;28;20040;-62
2023/01/22 02:18:31;;;;;;;37.53;19.60;;;-2.90;99.90;;;;;;4997561;28;20050;-61
2023/01/22 02:20:59;;;;;;;;;;;-2.90;99.90;;;;;;4996915;28;20046;-61
2023/01/22 02:23:29;;;;;;;35.33;16.73;;;-2.90;99.90;;;;;;4993976;28;20428;-61
2023/01/22 02:25:59;;;;;;;36.67;18.25;;;-2.90;99.90;;;;;;4996074;28;20057;-61
2023/01/22 02:28:25;;;;;;;36.50;17.23;;;-2.80;99.90;;;;;;5003241;28;20440;-61
2023/01/22 02:30:54;;;;;;;30.90;17.05;;;-2.80;99.90;;;;;;4993580;28;20094;-62
2023/01/22 02:33:21;;;;;;;32.15;17.38;;;-2.90;99.90;;;;;;4993962;28;20050;-61
2023/01/22 02:35:48;;;;;;;32.92;18.15;;;-2.90;99.90;;;;;;4995248;28;20037;-62
2023/01/22 02:38:14;;;;;;;;;;;-2.90;99.90;;;;;;4996368;28;20049;-63
2023/01/22 02:40:47;;;;;;;39.05;18.50;;;-2.90;99.90;;;;;;4998444;28;19924;-62
2023/01/22 02:43:17;;;;;;;33.17;16.83;;;-2.90;99.90;;;;;;4994629;28;20116;-63
2023/01/22 02:45:44;;;;;;;33.83;17.50;;;-2.90;99.90;;;;;;4998880;28;20521;-62
2023/01/22 02:48:11;;;;;;;31.48;17.80;;;-2.80;99.90;;;;;;4998445;28;20227;-63
2023/01/22 02:50:38;;;;;;;34.83;15.98;;;-2.90;99.90;;;;;;5003501;28;20036;-62
2023/01/22 02:53:05;;;;;;;30.13;16.85;;;-2.80;99.90;;;;;;4996382;28;20338;-61
2023/01/22 02:55:33;;;;;;;30.23;15.32;;;-2.90;99.90;;;;;;5004336;28;20412;-63
2023/01/22 02:57:59;;;;;;;;;;;-2.90;99.90;;;;;;4997839;28;20431;-62
2023/01/22 03:00:26;;;;;;;28.25;14.05;;;-2.80;99.90;;;;;;5003779;28;20393;-61
2023/01/22 03:02:54;;;;;;;27.10;14.90;;;-2.80;99.90;;;;;;4995351;28;20103;-61
2023/01/22 03:05:20;;;;;;;;;;;-2.80;99.90;;;;;;4997049;28;20065;-62
2023/01/22 03:07:47;;;;;;;31.75;15.85;;;-2.80;99.90;;;;;;4993211;28;20156;-62
2023/01/22 03:10:17;;;;;;;31.52;16.75;;;-2.80;99.90;;;;;;4996933;28;20060;-61
2023/01/22 03:21:15;;;;;;;27.88;14.48;;;-2.90;99.90;;;;;;4996052;28;20455;-61
2023/01/22 03:23:51;;;;;;;27.17;15.43;;;-2.90;99.90;;;;;;4992795;28;20456;-63
2023/01/22 03:26:19;;;;;;;25.77;14.25;;;-2.90;99.90;;;;;;4994727;28;20055;-62
2023/01/22 03:28:47;;;;;;;30.50;16.10;;;-2.90;99.90;;;;;;5000015;28;20049;-63
2023/01/22 03:31:15;;;;;;;30.88;16.40;;;-2.90;99.90;;;;;;4998526;28;20304;-63
2023/01/22 03:33:43;;;;;;;31.42;16.52;;;-2.80;99.90;;;;;;5006098;28;20035;-63
2023/01/22 03:36:12;;;;;;;29.30;15.25;;;-2.90;99.90;;;;;;4998950;28;20042;-60
2023/01/22 03:38:44;;;;;;;32.85;17.65;;;-2.90;99.90;;;;;;5002678;28;20041;-62
2023/01/22 03:41:17;;;;;;;30.58;16.58;;;-2.80;99.90;;;;;;4998770;28;20462;-62
2023/01/22 03:43:46;;;;;;;31.88;16.20;;;-2.90;99.90;;;;;;5005510;28;20054;-60
2023/01/22 03:46:18;;;;;;;37.92;16.10;;;-2.90;99.90;;;;;;4993304;28;20434;-61
2023/01/22 03:48:50;;;;;;;34.53;18.33;;;-2.90;99.90;;;;;;4999194;28;20076;-61
2023/01/22 03:51:17;;;;;;;33.40;17.65;;;-2.90;99.90;;;;;;4990457;28;20523;-60
2023/01/22 03:53:45;;;;;;;30.10;16.65;;;-2.90;99.90;;;;;;5000033;28;20045;-61
2023/01/22 03:56:14;;;;;;;34.20;17.23;;;-2.90;99.90;;;;;;4996088;28;20213;-61
2023/01/22 03:58:42;;;;;;;34.72;17.50;;;-2.90;99.90;;;;;;5006730;28;20321;-61
2023/01/22 04:01:12;;;;;;;36.95;18.58;;;-2.90;99.90;;;;;;5006902;28;20061;-61
2023/01/22 04:03:39;;;;;;;37.10;19.23;;;-2.90;99.90;;;;;;5015335;28;20452;-62
2023/01/22 04:06:08;;;;;;;38.85;19.58;;;-3.00;99.90;;;;;;5006959;28;20584;-61
2023/01/22 04:08:37;;;;;;;36.17;17.80;;;-3.00;99.90;;;;;;5010348;28;20532;-61
2023/01/22 04:11:04;;;;;;;35.85;17.65;;;-3.00;99.90;;;;;;5007035;28;20053;-60
2023/01/22 04:13:33;;;;;;;44.35;19.70;;;-3.00;99.90;;;;;;5000034;28;20335;-60
2023/01/22 04:16:00;;;;;;;36.03;18.85;;;-3.00;99.90;;;;;;5005776;28;20042;-62
2023/01/22 04:18:56;;;;;;;41.30;19.92;;;-2.90;99.90;;;;;;5001669;28;20053;-60
2023/01/22 04:21:38;;;;;;;40.15;19.75;;;-3.00;99.90;;;;;;4996618;28;20136;-61
2023/01/22 04:24:08;;;;;;;40.35;20.25;;;-3.00;99.90;;;;;;5005035;28;20544;-60
2023/01/22 04:26:34;;;;;;;38.00;18.90;;;-3.00;99.90;;;;;;5004429;28;20305;-61
2023/01/22 04:29:02;;;;;;;34.92;19.08;;;-3.00;99.90;;;;;;4996522;28;20054;-61
2023/01/22 04:31:29;;;;;;;38.75;19.30;;;-2.90;99.90;;;;;;4996173;28;20315;-62
2023/01/22 04:34:16;;;;;;;37.50;18.73;;;-2.90;99.90;;;;;;4996873;28;20136;-61
2023/01/22 04:37:05;;;;;;;39.67;19.40;;;-2.90;99.90;;;;;;4997282;28;20321;-61
2023/01/22 04:39:33;;;;;;;35.97;18.05;;;-2.80;99.90;;;;;;5004921;28;20045;-60
2023/01/22 04:42:00;;;;;;;38.20;19.70;;;-2.80;99.90;;;;;;5003517;28;20377;-61
2023/01/22 04:44:27;;;;;;;42.28;19.45;;;-2.80;99.90;;;;;;4996369;28;20092;-61
2023/01/22 04:46:53;;;;;;;;;;;-2.80;99.90;;;;;;5006006;28;20180;-61
2023/01/22 04:49:20;;;;;;;37.38;17.55;;;-2.80;99.90;;;;;;4996198;28;20384;-60
2023/01/22 04:51:52;;;;;;;36.92;19.15;;;-2.80;99.90;;;;;;5012280;28;20627;-61
2023/01/22 04:54:19;;;;;;;37.42;20.63;;;-2.80;99.90;;;;;;5004615;28;20056;-63
2023/01/22 04:56:46;;;;;;;36.58;19.92;;;-2.80;99.90;;;;;;5000390;28;20053;-63
2023/01/22 04:59:13;;;;;;;;;;;-2.80;99.90;;;;;;4997816;28;20049;-63
2023/01/22 05:01:41;;;;;;;36.53;18.40;;;-2.80;99.90;;;;;;5013603;28;20036;-60
2023/01/22 05:04:09;;;;;;;37.38;18.95;;;-2.80;99.90;;;;;;4983050;28;20071;-62
2023/01/22 05:06:36;;;;;;;35.70;18.25;;;-2.80;99.90;;;;;;4999426;28;20478;-61
2023/01/22 05:09:04;;;;;;;36.20;19.55;;;-2.80;99.90;;;;;;4994625;28;20619;-61
2023/01/22 05:11:43;;;;;;;37.08;18.70;;;-2.80;99.90;;;;;;5005808;28;20205;-60
2023/01/22 05:14:11;;;;;;;32.83;18.65;;;-2.80;99.90;;;;;;4999104;28;20468;-62
2023/01/22 05:16:37;;;;;;;34.72;17.92;;;-2.70;99.90;;;;;;4993940;28;20045;-60
2023/01/22 05:19:04;;;;;;;;;;;-2.70;99.90;;;;;;4992702;28;20361;-62
2023/01/22 05:21:31;;;;;;;39.50;19.42;;;-2.70;99.90;;;;;;5004732;28;20334;-61
2023/01/22 05:23:58;;;;;;;;;;;-2.70;99.90;;;;;;4994035;28;20096;-62
2023/01/22 05:26:27;;;;;;;39.38;18.20;;;-2.70;99.90;;;;;;5004534;28;19928;-62
2023/01/22 05:29:00;;;;;;;34.03;19.25;;;-2.70;99.90;;;;;;5003394;28;20194;-62
2023/01/22 05:31:46;;;;;;;34.38;18.27;;;-2.70;99.90;;;;;;4995672;28;20407;-62
2023/01/22 05:34:25;;;;;;;38.35;19.60;;;-2.70;99.90;;;;;;4995940;28;20540;-62
2023/01/22 05:36:52;;;;;;;41.78;21.13;;;-2.70;99.90;;;;;;5000536;28;20281;-62
2023/01/22 05:39:21;;;;;;;39.20;19.88;;;-2.70;99.90;;;;;;5004799;28;20156;-61
2023/01/22 05:41:51;;;;;;;43.15;21.20;;;-2.70;99.90;;;;;;4997520;28;20046;-61
2023/01/22 05:44:18;;;;;;;41.20;21.95;;;-2.80;99.90;;;;;;5002962;28;20049;-62
2023/01/22 05:46:50;;;;;;;38.88;21.40;;;-2.70;99.90;;;;;;5004097;28;20517;-61
2023/01/22 05:49:44;;;;;;;38.10;20.35;;;-2.70;99.90;;;;;;5010911;28;20049;-62
2023/01/22 05:52:13;;;;;;;37.65;20.83;;;-2.70;99.90;;;;;;4995564;28;20105;-62
2023/01/22 05:54:40;;;;;;;37.03;18.33;;;-2.70;99.90;;;;;;4997861;28;20505;-61
2023/01/22 05:57:07;;;;;;;34.10;18.60;;;-2.70;99.90;;;;;;4995277;28;20052;-61
2023/01/22 05:59:36;;;;;;;38.97;21.30;;;-2.70;99.90;;;;;;4994958;28;20558;-61
2023/01/22 06:02:05;;;;;;;39.97;21.08;;;-2.70;99.90;;;;;;5000343;28;20318;-62
2023/01/22 06:04:36;;;;;;;38.45;21.75;;;-2.70;99.90;;;;;;4998247;28;20065;-62
2023/01/22 06:07:13;;;;;;;38.00;20.80;;;-2.70;99.90;;;;;;4992810;28;20132;-61
2023/01/22 06:09:40;;;;;;;;;;;-2.70;99.90;;;;;;4998514;28;20038;-63
2023/01/22 06:12:07;;;;;;;38.58;19.75;;;-2.60;99.90;;;;;;4997032;28;19925;-61
2023/01/22 06:14:33;;;;;;;40.35;21.02;;;-2.60;99.90;;;;;;4988680;28;20610;-62
2023/01/22 06:17:01;;;;;;;42.15;21.98;;;-2.60;99.90;;;;;;4996063;28;20069;-62
2023/01/22 06:19:37;;;;;;;40.08;22.15;;;-2.60;99.90;;;;;;5003458;28;20434;-62
2023/01/22 06:22:05;;;;;;;42.55;22.00;;;-2.70;99.90;;;;;;4999039;28;20650;-62
2023/01/22 06:24:44;;;;;;;41.33;21.48;;;-2.60;99.90;;;;;;5004895;28;20054;-62
2023/01/22 06:27:13;;;;;;;43.88;21.85;;;-2.60;99.90;;;;;;5000636;28;20245;-62
2023/01/22 06:29:49;;;;;;;40.87;21.53;;;-2.60;99.90;;;;;;5003907;28;20299;-61
2023/01/22 06:32:16;;;;;;;42.42;21.42;;;-2.60;99.90;;;;;;4994418;28;20242;-61
2023/01/22 06:34:43;;;;;;;41.88;21.83;;;-2.60;99.90;;;;;;4999129;28;20197;-62
2023/01/22 06:37:10;;;;;;;;;;;-2.70;99.90;;;;;;4997842;28;20053;-61
2023/01/22 06:39:38;;;;;;;46.28;23.40;;;-2.70;99.90;;;;;;4981266;28;19932;-62
2023/01/22 06:42:21;;;;;;;48.67;23.10;;;-2.70;99.90;;;;;;4996709;28;20146;-61
2023/01/22 06:44:50;;;;;;;46.13;23.20;;;-2.70;99.90;;;;;;4995524;28;20046;-61
2023/01/22 06:47:18;;;;;;;46.90;22.02;;;-2.70;99.90;;;;;;5002472;28;20141;-61
2023/01/22 06:49:45;;;;;;;42.25;20.55;;;-2.80;99.90;;;;;;4996560;28;20774;-61
2023/01/22 06:52:12;;;;;;;45.35;24.40;;;-2.70;99.90;;;;;;4996052;28;20412;-62
2023/01/22 06:54:39;;;;;;;46.35;22.45;;;-2.70;99.90;;;;;;5012047;28;20042;-62
2023/01/22 06:57:05;;;;;;;47.03;23.77;;;-2.70;99.90;;;;;;5002259;28;20524;-61
2023/01/22 06:59:35;;;;;;;47.65;22.55;;;-2.70;99.90;;;;;;4993927;28;20108;-60
2023/01/22 07:02:03;;;;;;;43.63;22.88;;;-2.70;99.90;;;;;;5001436;28;20052;-62
2023/01/22 07:04:29;;;;;;;39.70;20.58;;;-2.70;99.90;;;;;;5001264;28;20154;-61
2023/01/22 07:06:56;;;;;;;;;;;-2.80;99.90;;;;;;5000120;28;20220;-61
2023/01/22 07:09:23;;;;;;;37.10;19.73;;;-2.70;99.90;;;;;;4997643;28;19925;-61
2023/01/22 07:11:50;;;;;;;42.97;21.13;;;-2.70;99.90;;;;;;4999622;28;20038;-61
2023/01/22 07:14:16;;;;;;;46.10;22.77;;;-2.70;99.90;;;;;;5001225;28;20104;-61
2023/01/22 07:17:01;;;;;;;40.88;21.05;;;-2.70;99.90;;;;;;5001498;28;20398;-61
2023/01/22 07:19:28;;;;;;;;;;;-2.70;99.90;;;;;;4998916;28;20050;-61
2023/01/22 07:21:54;;;;;;;;;;;-2.60;99.90;;;;;;4998094;28;20104;-61
2023/01/22 07:24:21;;;;;;;;;;;-2.60;99.90;;;;;;5001792;28;20419;-61
2023/01/22 07:26:48;;;;;;;;;;;-2.60;99.90;;;;;;5001911;28;19932;-51
2023/01/22 07:29:15;;;;;;;;;;;-2.60;99.90;;;;;;4997074;28;20113;-51
2023/01/22 07:31:41;;;;;;;;;;;-2.50;99.90;;;;;;5002543;28;19935;-51
2023/01/22 07:34:08;;;;;;;;;;;-2.50;99.90;;;;;;4998985;28;20169;-52
2023/01/22 07:36:35;;;;;;;;;;;-2.40;99.90;;;;;;5000072;28;20027;-50
2023/01/22 07:39:02;;;;;;;;;;;-2.40;99.90;;;;;;4998771;28;19925;-51
2023/01/22 07:41:29;;;;;;;;;;;-2.40;99.90;;;;;;5000555;28;20066;-49
2023/01/22 07:43:58;;;;;;;;;;;-2.40;99.90;;;;;;4999358;28;20308;-50
2023/01/22 07:46:26;;;;;;;;;;;-2.30;99.90;;;;;;4998518;28;20621;-50
2023/01/22 07:48:52;;;;;;;;;;;-2.30;99.90;;;;;;4997250;28;19932;-52
2023/01/22 07:51:19;;;;;;;;;;;-2.30;99.90;;;;;;4998834;28;20165;-49
2023/01/22 07:53:46;;;;;;;;;;;-2.20;99.90;;;;;;4997185;28;19978;-52
2023/01/22 07:56:12;;;;;;;;;;;-2.30;99.90;;;;;;4998218;28;20435;-51
2023/01/22 07:58:40;;;;;;;;;;;-2.20;99.90;;;;;;4997729;28;20032;-50
2023/01/22 08:01:06;;;;;;;;;;;-2.20;99.90;;;;;;5000729;28;20007;-50
2023/01/22 08:03:33;;;;;;;;;;;-2.20;99.90;;;;;;4997453;28;19925;-53
2023/01/22 08:06:00;;;;;;;;;;;-2.20;99.90;;;;;;4999990;28;19982;-50
2023/01/22 08:08:26;;;;;;;;;;;-2.20;99.90;;;;;;4997496;28;20176;-51
2023/01/22 08:10:57;;;;;;;;;;;-2.20;99.90;;;;;;4997496;28;20451;-52
2023/01/22 08:13:23;;;;;;;;;;;-2.10;99.90;;;;;;4999286;28;20431;-52
2023/01/22 08:15:50;;;;;;;;;;;-2.10;99.90;;;;;;4999358;28;20347;-49
2023/01/22 08:18:16;;;;;;;;;;;-2.10;99.90;;;;;;4998924;28;19932;-51
2023/01/22 08:20:46;;;;;;;;;;;-2.10;99.90;;;;;;4998967;28;20536;-51
2023/01/22 08:23:12;;;;;;;;;;;-2.10;99.90;;;;;;5000036;28;19932;-53
2023/01/22 08:25:39;;;;;;;;;;;-2.00;99.90;;;;;;4998273;28;19953;-51
2023/01/22 08:28:05;;;;;;;;;;;-2.00;99.90;;;;;;5000669;28;19976;-50
2023/01/22 08:30:33;;;;;;;;;;;-1.90;99.90;;;;;;4996532;28;20390;-52
2023/01/22 08:33:11;;;;;;;;;;;-1.90;99.90;;;;;;4997581;28;20055;-52
2023/01/22 08:35:38;;;;;;;;;;;-1.90;99.90;;;;;;4999265;28;20623;-53
2023/01/22 08:38:05;;;;;;;;;;;-1.80;99.90;;;;;;4997388;28;19929;-51
2023/01/22 08:40:31;;;;;;;;;;;-1.80;99.90;;;;;;4998625;28;19925;-50
2023/01/22 08:42:58;;;;;;;;;;;-1.70;99.90;;;;;;4997311;28;20014;-50
2023/01/22 08:45:25;;;;;;;;;;;-1.70;99.90;;;;;;4998962;28;19936;-50
2023/01/22 08:47:55;;;;;;;;;;;-1.70;99.90;;;;;;4996648;28;19988;-50
2023/01/22 08:50:21;;;;;;;;;;;-1.60;99.90;;;;;;4999529;28;19952;-51
2023/01/22 08:52:48;;;;;;;;;;;-1.60;99.90;;;;;;5000471;28;20051;-50
2023/01/22 08:55:15;;;;;;;;;;;-1.60;99.90;;;;;;4993289;28;20013;-49
2023/01/22 08:57:41;;;;;;;;;;;-1.60;99.90;;;;;;4981701;28;20416;-59
2023/01/22 09:00:10;;;;;;;;;;;-1.60;99.90;;;;;;4983540;28;20031;-47
2023/01/22 09:02:36;;;;;;;;;;;-1.60;99.90;;;;;;4984995;28;20023;-48
2023/01/22 09:05:03;;;;;;;;;;;-1.60;99.90;;;;;;4984325;28;19925;-49
2023/01/22 09:07:30;;;;;;;;;;;-1.60;99.90;;;;;;4983843;28;20407;-50
2023/01/22 09:09:56;;;;;;;;;;;-1.60;99.90;;;;;;4982965;28;20026;-50
2023/01/22 09:12:23;;;;;;;;;;;-1.60;99.90;;;;;;4983207;28;19925;-49
2023/01/22 09:14:50;;;;;;;;;;;-1.60;99.90;;;;;;4985700;28;19932;-53
2023/01/22 09:17:16;;;;;;;;;;;-1.70;99.90;;;;;;4984654;28;19956;-52
2023/01/22 09:19:43;;;;;;;;;;;-1.70;99.90;;;;;;4980986;28;19929;-55
2023/01/22 09:22:09;;;;;;;;;;;-1.70;99.90;;;;;;4982647;28;19925;-52
2023/01/22 09:24:36;;;;;;;;;;;-1.70;99.90;;;;;;4983213;28;20363;-50
2023/01/22 09:27:03;;;;;;;;;;;-1.80;99.90;;;;;;4983027;28;20069;-51
2023/01/22 09:29:29;;;;;;;;;;;-1.80;99.90;;;;;;4981476;28;19935;-52
2023/01/22 09:31:56;;;;;;;;;;;-1.80;99.90;;;;;;4983363;28;20228;-52
2023/01/22 09:34:23;;;;;;;;;;;-1.80;99.90;;;;;;4982700;28;19944;-52
2023/01/22 09:36:50;;;;;;;;;;;-1.80;99.90;;;;;;4982050;28;19927;-53
2023/01/22 09:39:16;;;;;;;;;;;-1.90;99.90;;;;;;4984886;28;20399;-53
2023/01/22 09:41:48;;;;;;;;;;;-1.80;99.90;;;;;;4982517;28;20413;-50
2023/01/22 09:44:21;;;;;;;;;;;-1.80;99.90;;;;;;4981213;28;20125;-52
2023/01/22 09:46:51;;;;;;;;;;;-1.80;99.90;;;;;;4979826;28;19933;-51
2023/01/22 09:49:20;;;;;;;;;;;-1.80;99.90;;;;;;4995454;28;20303;-49
2023/01/22 09:51:49;;;;;;;;;;;-1.80;99.90;;;;;;4979885;28;20317;-51
2023/01/22 09:54:16;;;;;;;;;;;-1.70;99.90;;;;;;4980816;28;19933;-49
2023/01/22 09:56:49;;;;;;;;;;;-1.70;99.90;;;;;;4981391;28;19964;-52
2023/01/22 09:59:17;;;;;;;;;;;-1.70;99.90;;;;;;4981754;28;20451;-51
2023/01/22 10:01:57;;;;;;;;;;;-1.60;99.90;;;;;;4981692;28;20154;-53
2023/01/22 10:04:33;;;;;;;;;;;-1.50;99.90;;;;;;4984557;28;20331;-51
2023/01/22 10:07:01;;;;;;;;;;;-1.40;99.90;;;;;;4982250;28;20020;-51
2023/01/22 10:09:30;;;;;;;;;;;-1.40;99.90;;;;;;4980373;28;20451;-49
2023/01/22 10:11:57;;;;;;;;;;;-1.30;99.90;;;;;;4990388;28;20288;-54
2023/01/22 10:14:26;;;;;;;;;;;-1.30;99.90;;;;;;4982064;28;19936;-56
2023/01/22 10:16:53;;;;;;;;;;;-1.20;99.90;;;;;;4981916;28;19929;-53
2023/01/22 10:19:25;;;;;;;;;;;-1.10;99.90;;;;;;4982524;28;19932;-52
2023/01/22 10:21:59;;;;;;;;;;;-1.10;99.90;;;;;;4983541;28;20350;-53
2023/01/22 10:24:26;;;;;;;;;;;-1.10;99.90;;;;;;4983840;28;20254;-52
2023/01/22 10:26:53;;;;;;;;;;;-1.00;99.90;;;;;;4979646;28;20145;-52
2023/01/22 10:29:31;;;;;;;;;;;-1.00;99.90;;;;;;4982308;28;19925;-51
2023/01/22 10:31:59;;;;;;;;;;;-0.90;99.90;;;;;;4980026;28;19935;-53
2023/01/22 10:34:29;;;;;;;;;;;-0.90;99.90;;;;;;4982621;28;20264;-51
2023/01/22 10:36:58;;;;;;;;;;;-0.90;99.90;;;;;;4982573;28;19926;-52
2023/01/22 10:39:25;;;;;;;;;;;-0.80;99.90;;;;;;4981734;28;19929;-52
2023/01/22 10:41:59;;;;;;;;;;;-0.80;99.90;;;;;;4983025;28;19983;-54
2023/01/22 10:44:26;;;;;;;;;;;-0.80;99.90;;;;;;4980017;28;19956;-52
2023/01/22 10:46:54;;;;;;;;;;;-0.80;99.90;;;;;;4980980;28;20470;-52
2023/01/22 10:49:25;;;;;;;;;;;-0.70;99.90;;;;;;4979818;28;20425;-53
2023/01/22 10:51:53;;;;;;;;;;;-0.70;99.90;;;;;;4983222;28;19983;-52
2023/01/22 10:54:26;;;;;;;;;;;-0.70;99.90;;;;;;4989232;28;20391;-52
2023/01/22 10:57:02;;;;;;;;;;;-0.70;99.90;;;;;;4982851;28;20233;-52
2023/01/22 10:59:29;;;;;;;;;;;-0.70;99.90;;;;;;4980677;28;20055;-53
2023/01/22 11:01:58;;;;;;;;;;;-0.70;99.90;;;;;;4981845;28;19972;-52
2023/01/22 11:04:29;;;;;;;;;;;-0.80;99.90;;;;;;4985917;28;19931;-52
2023/01/22 11:07:03;;;;;;;;;;;-0.80;99.90;;;;;;4981430;28;20044;-52
2023/01/22 11:09:35;;;;;;;;;;;-0.90;99.90;;;;;;4988655;28;20422;-52
2023/01/22 11:12:10;;;;;;;;;;;-0.90;99.90;;;;;;4981089;28;19925;-51
2023/01/22 11:14:37;;;;;;;;;;;-1.00;99.90;;;;;;4985445;28;20159;-52
2023/01/22 11:17:14;;;;;;;;;;;-1.00;99.90;;;;;;4982776;28;19949;-52
2023/01/22 11:20:07;;;;;;;;;;;-1.10;99.90;;;;;;4980612;28;19920;-53
2023/01/22 11:22:36;;;;;;;;;;;-1.10;99.90;;;;;;4982494;28;20023;-51
2023/01/22 11:25:02;;;;;;;;;;;-1.20;99.90;;;;;;4982367;28;19929;-51
2023/01/22 11:27:32;;;;;;;;;;;-1.20;99.90;;;;;;4980974;28;20392;-52
2023/01/22 11:30:17;;;;;;;;;;;-1.20;99.90;;;;;;4981641;28;20350;-52
2023/01/22 11:33:00;;;;;;;;;;;-1.20;99.90;;;;;;4982166;28;19953;-52
2023/01/22 11:35:49;;;;;;;;;;;-1.10;99.90;;;;;;4996341;28;20538;-48
2023/01/22 11:38:53;;;;;;;35.95;19.08;;;-1.10;99.90;;;;;;4998454;27;20232;-51
2023/01/22 11:41:48;;;;;;;32.95;17.77;;;-1.10;99.90;;;;;;4976192;28;20058;-50
2023/01/22 11:44:39;;;;;;;34.72;18.40;;;-1.20;99.90;;;;;;4980606;28;20050;-50
2023/01/22 11:47:53;;;;;;;39.28;20.38;;;-1.20;99.90;;;;;;4983590;28;20253;-50
2023/01/22 11:50:34;;;;;;;38.28;20.85;;;-1.30;99.90;;;;;;4904142;28;20479;-52
2023/01/22 11:53:32;;;;;;;38.00;20.98;;;-1.30;99.90;;;;;;4920377;28;20059;-50
2023/01/22 11:56:20;;;;;;;38.67;18.98;;;-1.40;99.90;;;;;;4968615;28;20206;-52
2023/01/22 11:59:03;;;;;;;37.80;19.33;;;-1.50;99.90;;;;;;4981082;28;20042;-53
2023/01/22 12:02:02;;;;;;;31.88;17.55;;;-1.60;99.90;;;;;;4981682;28;20069;-49
2023/01/22 12:04:43;;;;;;;28.63;16.70;;;-1.70;99.90;;;;;;4982148;28;20050;-51
2023/01/22 12:07:31;;;;;;;34.70;18.25;;;-1.70;99.90;;;;;;4980936;28;20073;-51
2023/01/22 12:09:58;;;;;;;31.50;16.60;;;-1.80;99.90;;;;;;4981849;28;20744;-51
2023/01/22 12:12:24;;;;;;;;;;;-1.80;99.90;;;;;;4982994;28;20388;-52
2023/01/22 12:15:28;;;;;;;36.03;16.80;;;-1.80;99.90;;;;;;4980682;28;20181;-51
2023/01/22 12:18:24;;;;;;;34.47;18.20;;;-1.70;99.90;;;;;;4986329;28;20049;-51
2023/01/22 12:21:07;;;;;;;41.15;19.25;;;-1.60;99.90;;;;;;4978714;28;20535;-51
2023/01/22 12:23:33;;;;;;;36.03;18.23;;;-1.60;99.90;;;;;;4995766;28;20136;-54
2023/01/22 12:26:07;;;;;;;;;;;-1.60;99.90;;;;;;4983673;28;20046;-52
2023/01/22 12:28:59;;;;;;;26.80;14.63;;;-1.50;99.90;;;;;;4981287;28;19932;-53
2023/01/22 12:31:30;;;;;;;26.55;14.00;;;-1.50;99.90;;;;;;4982277;28;20045;-53
2023/01/22 12:34:01;;;;;;;28.58;15.52;;;-1.40;99.90;;;;;;4981339;28;20060;-53
2023/01/22 12:36:28;;;;;;;25.50;13.55;;;-1.40;99.90;;;;;;4981049;28;20113;-51
2023/01/22 12:39:01;;;;;;;26.33;14.65;;;-1.30;99.90;;;;;;4981532;28;20319;-49
2023/01/22 12:41:28;;;;;;;28.65;14.30;;;-1.30;99.90;;;;;;4982142;28;20384;-49
2023/01/22 12:43:58;;;;;;;25.48;14.40;;;-1.20;99.90;;;;;;4979908;28;20045;-51
2023/01/22 12:46:37;;;;;;;25.27;15.27;;;-1.20;99.90;;;;;;4980319;28;20562;-50
2023/01/22 12:49:07;;;;;;;24.48;14.85;;;-1.20;99.90;;;;;;4971887;28;20050;-52
2023/01/22 12:51:40;;;;;;;25.80;15.32;;;-1.20;99.90;;;;;;4966734;28;20042;-51
2023/01/22 12:54:24;;;;;;;27.40;14.90;;;-1.20;99.90;;;;;;4967284;28;20478;-51
2023/01/22 12:57:07;;;;;;;27.50;15.35;;;-1.20;99.90;;;;;;4968835;28;20190;-52
2023/01/22 12:59:34;;;;;;;26.92;13.93;;;-1.30;99.90;;;;;;4965565;28;20284;-52
2023/01/22 13:02:02;;;;;;;;;;;-1.30;99.90;;;;;;4968137;28;20202;-51
2023/01/22 13:04:32;;;;;;;26.70;15.23;;;-1.30;99.90;;;;;;4965680;28;20169;-50
2023/01/22 13:07:19;;;;;;;29.73;16.10;;;-1.30;99.90;;;;;;4966045;28;20042;-50
2023/01/22 13:09:46;;;;;;;25.60;14.38;;;-1.30;99.90;;;;;;4967694;28;20297;-52
2023/01/22 13:12:27;;;;;;;29.63;14.70;;;-1.20;99.90;;;;;;4965875;28;20038;-51
2023/01/22 13:14:55;;;;;;;26.35;15.02;;;-1.20;99.90;;;;;;4963807;28;20121;-50
2023/01/22 13:17:26;;;;;;;27.60;15.65;;;-1.20;99.90;;;;;;4966269;28;20138;-54
2023/01/22 13:19:53;;;;;;;27.95;15.23;;;-1.20;99.90;;;;;;4968631;28;20046;-51
2023/01/22 13:22:26;;;;;;;23.92;14.30;;;-1.20;99.90;;;;;;4966359;28;20992;-50
2023/01/22 13:24:55;;;;;;;30.90;16.45;;;-1.20;99.90;;;;;;4968697;28;20042;-49
2023/01/22 13:27:29;;;;;;;30.15;17.23;;;-1.20;99.90;;;;;;4963219;28;20140;-48
2023/01/22 13:30:07;;;;;;;27.60;15.65;;;-1.10;99.90;;;;;;4971957;28;20053;-49